Time;durP1;ratioP1;P1;durP2;ratioP2;P2;SDS_P1;SDS_P2;PMS_P1;PMS_P2;Temp;Humidity;BMP_temperature;BMP_pressure;BME280_temperature;BME280_humidity;BME280_pressure;Samples;Min_cycle;Max_cycle;Signal;HPM_P1;HPM_P2
2023/09/03 00:01:15;;;;;;;1999.90;999.90;;;15.90;99.90;;;;;;5036325;28;20077;-71
2023/09/03 00:03:41;;;;;;;1999.90;999.90;;;15.90;99.90;;;;;;5036742;28;20030;-71
2023/09/03 00:06:06;;;;;;;1999.90;999.90;;;15.80;99.90;;;;;;5036140;28;20048;-71
2023/09/03 00:08:32;;;;;;;1999.90;999.90;;;15.80;99.90;;;;;;5036227;28;20065;-71
2023/09/03 00:10:57;;;;;;;1999.90;999.90;;;15.80;99.90;;;;;;5036179;28;20056;-71
2023/09/03 00:13:23;;;;;;;1999.90;999.90;;;15.80;99.90;;;;;;5034761;28;20036;-71
2023/09/03 00:15:48;;;;;;;1999.90;999.90;;;15.80;99.90;;;;;;5036011;28;20116;-71
2023/09/03 00:18:14;;;;;;;1999.90;999.90;;;15.70;99.90;;;;;;5035803;28;20026;-71
2023/09/03 00:20:41;;;;;;;1999.90;999.90;;;15.70;99.90;;;;;;5036370;28;20029;-71
2023/09/03 00:23:07;;;;;;;1999.90;999.90;;;15.60;99.90;;;;;;5036416;28;20030;-71
2023/09/03 00:25:36;;;;;;;1999.90;999.90;;;15.60;99.90;;;;;;5035645;28;20486;-71
2023/09/03 00:28:03;;;;;;;1999.90;999.90;;;15.60;99.90;;;;;;5034369;28;20040;-71
2023/09/03 00:30:28;;;;;;;1999.90;999.90;;;15.60;99.90;;;;;;5036140;28;20125;-71
2023/09/03 00:32:54;;;;;;;1999.90;999.90;;;15.50;99.90;;;;;;5035768;28;20360;-71
2023/09/03 00:35:20;;;;;;;1999.90;999.90;;;15.50;99.90;;;;;;5035519;28;20070;-71
2023/09/03 00:37:46;;;;;;;1999.90;999.90;;;15.50;99.90;;;;;;5035786;28;20029;-71
2023/09/03 00:40:11;;;;;;;1999.90;999.90;;;15.50;99.90;;;;;;5035804;28;20030;-71
2023/09/03 00:42:37;;;;;;;1999.90;999.90;;;15.60;99.90;;;;;;5036011;28;20476;-71
2023/09/03 00:45:03;;;;;;;1999.90;999.90;;;15.50;99.90;;;;;;5035782;28;20029;-71
2023/09/03 00:47:29;;;;;;;1999.90;999.90;;;15.50;99.90;;;;;;5035213;28;20050;-71
2023/09/03 00:49:55;;;;;;;1999.90;999.90;;;15.40;99.90;;;;;;5035534;28;20514;-71
2023/09/03 00:52:22;;;;;;;1999.90;999.90;;;15.40;99.90;;;;;;5034373;28;20034;-71
2023/09/03 00:54:48;;;;;;;1999.90;999.90;;;15.30;99.90;;;;;;5035370;28;20055;-71
2023/09/03 00:57:14;;;;;;;1999.90;999.90;;;15.30;99.90;;;;;;5035425;28;20121;-71
2023/09/03 00:59:41;;;;;;;1999.90;999.90;;;15.30;99.90;;;;;;5034041;28;20472;-71
2023/09/03 01:02:06;;;;;;;1999.90;999.90;;;15.30;99.90;;;;;;5035452;28;20514;-71
2023/09/03 01:04:32;;;;;;;1999.90;999.90;;;15.30;99.90;;;;;;5033440;28;20033;-71
2023/09/03 01:06:58;;;;;;;1999.90;999.90;;;15.30;99.90;;;;;;5034175;28;20034;-71
2023/09/03 01:09:24;;;;;;;1999.90;999.90;;;15.30;99.90;;;;;;5035330;28;20037;-71
2023/09/03 01:11:57;;;;;;;1999.90;999.90;;;15.30;99.90;;;;;;5035535;28;20041;-71
2023/09/03 01:14:42;;;;;;;1999.90;999.90;;;15.20;99.90;;;;;;5034937;28;20838;-71
2023/09/03 01:17:20;;;;;;;1999.90;999.90;;;15.20;99.90;;;;;;5035036;28;20034;-71
2023/09/03 01:20:12;;;;;;;1999.90;999.90;;;15.20;99.90;;;;;;5035639;28;20052;-71
2023/09/03 01:22:59;;;;;;;1999.90;999.90;;;15.30;99.90;;;;;;5035537;28;20120;-71
2023/09/03 01:25:42;;;;;;;1999.90;999.90;;;15.30;99.90;;;;;;5034634;28;20034;-71
2023/09/03 01:28:22;;;;;;;1999.90;999.90;;;15.30;99.90;;;;;;5033948;28;20486;-71
2023/09/03 01:30:50;;;;;;;1999.90;999.90;;;15.30;99.90;;;;;;5035129;28;20041;-71
2023/09/03 01:33:17;;;;;;;1999.90;999.90;;;15.40;99.90;;;;;;5034994;28;20034;-71
2023/09/03 01:35:44;;;;;;;1999.90;999.90;;;15.40;99.90;;;;;;5034731;28;20111;-71
2023/09/03 01:38:09;;;;;;;1999.90;999.90;;;15.40;99.90;;;;;;5034809;28;20478;-71
2023/09/03 01:40:35;;;;;;;1999.90;999.90;;;15.30;99.90;;;;;;5035148;28;20040;-71
2023/09/03 01:43:01;;;;;;;1999.90;999.90;;;15.30;99.90;;;;;;5034877;28;20034;-71
2023/09/03 01:45:40;;;;;;;1999.90;999.90;;;15.20;99.90;;;;;;5034861;28;20044;-71
2023/09/03 01:48:28;;;;;;;1999.90;999.90;;;15.20;99.90;;;;;;5034243;28;20040;-71
2023/09/03 01:51:06;;;;;;;1999.90;999.90;;;15.20;99.90;;;;;;5035206;28;20522;-71
2023/09/03 01:53:42;;;;;;;1999.90;999.90;;;15.20;99.90;;;;;;5034982;28;20038;-71
2023/09/03 01:56:09;;;;;;;1999.90;999.90;;;15.10;99.90;;;;;;5034544;28;20906;-71
2023/09/03 01:58:35;;;;;;;1999.90;999.90;;;15.10;99.90;;;;;;5034318;28;20466;-71
2023/09/03 02:01:02;;;;;;;1999.90;999.90;;;15.20;99.90;;;;;;5034655;28;20038;-71
2023/09/03 02:03:29;;;;;;;1999.90;999.90;;;15.20;99.90;;;;;;5034436;28;20124;-71
2023/09/03 02:05:55;;;;;;;1999.90;999.90;;;15.20;99.90;;;;;;5034478;28;20049;-71
2023/09/03 02:08:21;;;;;;;1999.90;999.90;;;15.10;99.90;;;;;;5034021;28;20034;-71
2023/09/03 02:10:46;;;;;;;1999.90;999.90;;;15.10;99.90;;;;;;5034591;28;20046;-71
2023/09/03 02:13:12;;;;;;;1999.90;999.90;;;15.10;99.90;;;;;;5034770;28;20037;-71
2023/09/03 02:15:37;;;;;;;1999.90;999.90;;;15.10;99.90;;;;;;5034326;28;20411;-71
2023/09/03 02:18:03;;;;;;;1999.90;999.90;;;15.20;99.90;;;;;;5034236;28;20033;-71
2023/09/03 02:20:28;;;;;;;1999.90;999.90;;;15.20;99.90;;;;;;5034400;28;20392;-71
2023/09/03 02:22:54;;;;;;;1999.90;999.90;;;15.30;99.90;;;;;;5033092;28;20076;-71
2023/09/03 02:25:19;;;;;;;1999.90;999.90;;;15.30;99.90;;;;;;5033983;28;20492;-71
2023/09/03 02:27:45;;;;;;;1999.90;999.90;;;15.30;99.90;;;;;;5034153;28;20511;-71
2023/09/03 02:30:11;;;;;;;1999.90;999.90;;;15.30;99.90;;;;;;5034303;28;20120;-71
2023/09/03 02:32:36;;;;;;;1999.90;999.90;;;15.30;99.90;;;;;;5033994;28;20034;-71
2023/09/03 02:35:02;;;;;;;1999.90;999.90;;;15.20;99.90;;;;;;5033991;28;20038;-71
2023/09/03 02:37:27;;;;;;;1999.90;999.90;;;15.20;99.90;;;;;;5034523;28;20033;-71
2023/09/03 02:39:53;;;;;;;1999.90;999.90;;;15.20;99.90;;;;;;5037425;28;20084;-71
2023/09/03 02:42:19;;;;;;;1999.90;999.90;;;15.10;99.90;;;;;;5036437;28;20033;-71
2023/09/03 02:44:44;;;;;;;1999.90;999.90;;;15.10;99.90;;;;;;5037582;28;20034;-71
2023/09/03 02:47:10;;;;;;;1999.90;999.90;;;15.10;99.90;;;;;;5036254;28;20069;-71
2023/09/03 02:49:35;;;;;;;1999.90;999.90;;;15.10;99.90;;;;;;5035739;28;20038;-71
2023/09/03 02:52:01;;;;;;;1999.90;999.90;;;15.10;99.90;;;;;;5037732;28;20065;-71
2023/09/03 02:54:26;;;;;;;1999.90;999.90;;;15.00;99.90;;;;;;5037292;28;20073;-71
2023/09/03 02:56:52;;;;;;;1999.90;999.90;;;15.00;99.90;;;;;;5035992;28;20097;-71
2023/09/03 02:59:17;;;;;;;1999.90;999.90;;;15.00;99.90;;;;;;5037432;28;20029;-71
2023/09/03 03:01:43;;;;;;;1999.90;999.90;;;15.00;99.90;;;;;;5037595;28;20038;-71
2023/09/03 03:04:08;;;;;;;1999.90;999.90;;;14.90;99.90;;;;;;5037152;28;20032;-71
2023/09/03 03:06:34;;;;;;;1999.90;999.90;;;14.90;99.90;;;;;;5035924;28;20030;-71
2023/09/03 03:08:59;;;;;;;1999.90;999.90;;;14.80;99.90;;;;;;5036821;28;20065;-71
2023/09/03 03:11:25;;;;;;;1999.90;999.90;;;14.80;99.90;;;;;;5037246;28;20069;-71
2023/09/03 03:13:52;;;;;;;1999.90;999.90;;;14.80;99.90;;;;;;5035557;28;20116;-71
2023/09/03 03:16:18;;;;;;;1999.90;999.90;;;14.80;99.90;;;;;;5037118;28;20029;-71
2023/09/03 03:18:48;;;;;;;1999.90;999.90;;;14.80;99.90;;;;;;5035715;28;20030;-71
2023/09/03 03:21:17;;;;;;;1999.90;999.90;;;14.80;99.90;;;;;;5037044;28;20037;-71
2023/09/03 03:23:47;;;;;;;1999.90;999.90;;;14.80;99.90;;;;;;5036870;28;20038;-71
2023/09/03 03:26:12;;;;;;;1999.90;999.90;;;14.80;99.90;;;;;;5036926;28;20033;-71
2023/09/03 03:28:38;;;;;;;1999.90;999.90;;;14.80;99.90;;;;;;5036816;28;20026;-71
2023/09/03 03:31:18;;;;;;;1999.90;999.90;;;14.80;99.90;;;;;;5035515;28;20124;-71
2023/09/03 03:33:46;;;;;;;1999.90;999.90;;;14.70;99.90;;;;;;5036982;28;20056;-71
2023/09/03 03:36:14;;;;;;;1999.90;999.90;;;14.70;99.90;;;;;;5036303;28;20072;-71
2023/09/03 03:38:39;;;;;;;1999.90;999.90;;;14.80;99.90;;;;;;5035162;28;20041;-71
2023/09/03 03:41:12;;;;;;;1999.90;999.90;;;14.80;99.90;;;;;;5036906;28;20498;-71
2023/09/03 03:43:40;;;;;;;1999.90;999.90;;;14.90;99.90;;;;;;5036733;28;20065;-71
2023/09/03 03:46:06;;;;;;;1999.90;999.90;;;14.90;99.90;;;;;;5036486;28;20131;-71
2023/09/03 03:48:35;;;;;;;1999.90;999.90;;;15.00;99.90;;;;;;5035422;28;20066;-71
2023/09/03 03:51:02;;;;;;;1999.90;999.90;;;15.00;99.90;;;;;;5036426;28;20077;-71
2023/09/03 03:53:27;;;;;;;1999.90;999.90;;;15.00;99.90;;;;;;5036577;28;20030;-71
2023/09/03 03:56:00;;;;;;;1999.90;999.90;;;14.90;99.90;;;;;;5034773;28;20491;-71
2023/09/03 03:58:28;;;;;;;1999.90;999.90;;;14.90;99.90;;;;;;5035009;28;20455;-71
2023/09/03 04:00:54;;;;;;;1999.90;999.90;;;14.90;99.90;;;;;;5035359;28;20034;-71
2023/09/03 04:03:20;;;;;;;1999.90;999.90;;;14.80;99.90;;;;;;5036459;28;20096;-71
2023/09/03 04:05:55;;;;;;;1999.90;999.90;;;14.80;99.90;;;;;;5036289;28;20041;-71
2023/09/03 04:08:21;;;;;;;1999.90;999.90;;;14.80;99.90;;;;;;5036140;28;20038;-71
2023/09/03 04:10:46;;;;;;;1999.90;999.90;;;14.80;99.90;;;;;;5036420;28;20391;-71
2023/09/03 04:13:12;;;;;;;1999.90;999.90;;;14.80;99.90;;;;;;5034818;28;20435;-71
2023/09/03 04:15:38;;;;;;;1999.90;999.90;;;14.80;99.90;;;;;;5034603;28;20030;-71
2023/09/03 04:18:04;;;;;;;1999.90;999.90;;;14.80;99.90;;;;;;5035966;28;20096;-71
2023/09/03 04:20:29;;;;;;;1999.90;999.90;;;14.80;99.90;;;;;;5036248;28;20034;-71
2023/09/03 04:22:55;;;;;;;1999.90;999.90;;;14.80;99.90;;;;;;5036060;28;20038;-71
2023/09/03 04:25:21;;;;;;;1999.90;999.90;;;14.80;99.90;;;;;;5035996;28;20022;-71
2023/09/03 04:27:47;;;;;;;1999.90;999.90;;;14.80;99.90;;;;;;5036017;28;20034;-71
2023/09/03 04:30:12;;;;;;;1999.90;999.90;;;14.70;99.90;;;;;;5036224;28;20072;-71
2023/09/03 04:32:38;;;;;;;1999.90;999.90;;;14.70;99.90;;;;;;5036036;28;20049;-71
2023/09/03 04:35:04;;;;;;;1999.90;999.90;;;14.70;99.90;;;;;;5036023;28;20173;-71
2023/09/03 04:37:29;;;;;;;1999.90;999.90;;;14.70;99.90;;;;;;5035643;28;20038;-71
2023/09/03 04:39:55;;;;;;;1999.90;999.90;;;14.70;99.90;;;;;;5035899;28;20041;-71
2023/09/03 04:42:20;;;;;;;1999.90;999.90;;;14.70;99.90;;;;;;5035854;28;20175;-71
2023/09/03 04:44:46;;;;;;;1999.90;999.90;;;14.60;99.90;;;;;;5034350;28;20120;-71
2023/09/03 04:47:11;;;;;;;1999.90;999.90;;;14.60;99.90;;;;;;5035713;28;20038;-71
2023/09/03 04:49:37;;;;;;;1999.90;999.90;;;14.50;99.90;;;;;;5034387;28;20034;-71
2023/09/03 04:52:03;;;;;;;1999.90;999.90;;;14.60;99.90;;;;;;5035727;28;20400;-71
2023/09/03 04:54:31;;;;;;;1999.90;999.90;;;14.60;99.90;;;;;;5033863;28;20030;-71
2023/09/03 04:56:56;;;;;;;1999.90;999.90;;;14.50;99.90;;;;;;5035543;28;20092;-71
2023/09/03 04:59:22;;;;;;;1999.90;999.90;;;14.60;99.90;;;;;;5035609;28;20545;-71
2023/09/03 05:01:47;;;;;;;1999.90;999.90;;;14.50;99.90;;;;;;5034510;28;20089;-71
2023/09/03 05:04:13;;;;;;;1999.90;999.90;;;14.60;99.90;;;;;;5035144;28;20030;-71
2023/09/03 05:06:38;;;;;;;1999.90;999.90;;;14.50;99.90;;;;;;5035450;28;20120;-71
2023/09/03 05:09:04;;;;;;;1999.90;999.90;;;14.60;99.90;;;;;;5033998;28;20104;-71
2023/09/03 05:11:29;;;;;;;1999.90;999.90;;;14.70;99.90;;;;;;5035564;28;20042;-71
2023/09/03 05:13:55;;;;;;;1999.90;999.90;;;14.60;99.90;;;;;;5035298;28;20100;-71
2023/09/03 05:16:23;;;;;;;1999.90;999.90;;;14.60;99.90;;;;;;5035262;28;20042;-71
2023/09/03 05:18:48;;;;;;;1999.90;999.90;;;14.70;99.90;;;;;;5035347;28;20478;-71
2023/09/03 05:21:14;;;;;;;1999.90;999.90;;;14.70;99.90;;;;;;5035232;28;20042;-71
2023/09/03 05:23:40;;;;;;;1999.90;999.90;;;14.70;99.90;;;;;;5035353;28;20085;-71
2023/09/03 05:26:05;;;;;;;1999.90;999.90;;;14.80;99.90;;;;;;5035220;28;20037;-71
2023/09/03 05:28:32;;;;;;;1999.90;999.90;;;14.90;99.90;;;;;;5035042;28;20033;-71
2023/09/03 05:30:57;;;;;;;1999.90;999.90;;;15.00;99.90;;;;;;5035146;28;20561;-71
2023/09/03 05:33:23;;;;;;;1999.90;999.90;;;15.10;99.90;;;;;;5035286;28;20038;-71
2023/09/03 05:35:48;;;;;;;1999.90;999.90;;;15.10;99.90;;;;;;5034683;28;20064;-71
2023/09/03 05:38:14;;;;;;;1999.90;999.90;;;15.20;99.90;;;;;;5034856;28;20030;-71
2023/09/03 05:40:41;;;;;;;1999.90;999.90;;;15.30;99.90;;;;;;5033523;28;20065;-71
2023/09/03 05:43:07;;;;;;;1999.90;999.90;;;15.40;99.90;;;;;;5034707;28;20049;-71
2023/09/03 05:45:32;;;;;;;1999.90;999.90;;;15.50;99.90;;;;;;5034832;28;20061;-71
2023/09/03 05:47:58;;;;;;;1999.90;999.90;;;15.60;99.90;;;;;;5060269;22;20102;-70
2023/09/03 05:50:24;;;;;;;1999.90;999.90;;;15.70;99.90;;;;;;5054861;28;20052;-70
2023/09/03 05:52:49;;;;;;;1999.90;999.90;;;15.90;99.90;;;;;;5054773;28;20441;-69
2023/09/03 05:55:15;;;;;;;1999.90;999.90;;;15.90;99.90;;;;;;5054440;28;20044;-69
2023/09/03 05:57:40;;;;;;;1999.90;999.90;;;15.90;99.90;;;;;;5054399;28;20457;-70
2023/09/03 06:00:06;;;;;;;1999.90;999.90;;;16.10;99.90;;;;;;5054512;28;20033;-71
2023/09/03 06:02:35;;;;;;;1999.90;999.90;;;16.10;99.90;;;;;;5054316;28;20042;-71
2023/09/03 06:05:00;;;;;;;1999.90;999.90;;;16.10;99.90;;;;;;5054304;28;20033;-71
2023/09/03 06:07:26;;;;;;;1999.90;999.90;;;16.10;99.90;;;;;;5053094;28;20398;-71
2023/09/03 06:09:52;;;;;;;1999.90;999.90;;;16.30;99.90;;;;;;5054374;28;20041;-72
2023/09/03 06:12:17;;;;;;;1999.90;999.90;;;16.20;99.90;;;;;;5054261;28;20120;-71
2023/09/03 06:14:43;;;;;;;1999.90;999.90;;;16.30;99.90;;;;;;5054220;28;20057;-72
2023/09/03 06:17:08;;;;;;;1999.90;999.90;;;16.30;99.90;;;;;;5054477;28;20048;-72
2023/09/03 06:19:34;;;;;;;1999.90;999.90;;;16.60;99.90;;;;;;5054118;28;20042;-72
2023/09/03 06:21:59;;;;;;;1999.90;999.90;;;16.60;99.90;;;;;;5054489;28;20384;-72
2023/09/03 06:24:25;;;;;;;1999.90;999.90;;;16.60;99.90;;;;;;5054206;28;20029;-72
2023/09/03 06:26:51;;;;;;;1999.90;999.90;;;16.70;99.90;;;;;;5054437;28;20120;-71
2023/09/03 06:29:16;;;;;;;1999.90;999.90;;;16.70;99.90;;;;;;5054202;28;20043;-72
2023/09/03 06:31:42;;;;;;;1999.90;999.90;;;16.80;99.90;;;;;;5052608;28;20037;-72
2023/09/03 06:34:07;;;;;;;1999.90;999.90;;;16.90;99.90;;;;;;5053765;28;20026;-72
2023/09/03 06:36:33;;;;;;;1999.90;999.90;;;17.00;99.90;;;;;;5053916;28;20046;-72
2023/09/03 06:38:59;;;;;;;1999.90;999.90;;;17.00;99.90;;;;;;5054125;28;20044;-72
2023/09/03 06:41:24;;;;;;;1999.90;999.90;;;17.20;99.90;;;;;;5052722;28;20450;-72
2023/09/03 06:43:50;;;;;;;1999.90;999.90;;;17.30;99.90;;;;;;5054089;28;20467;-72
2023/09/03 06:46:15;;;;;;;1999.90;999.90;;;17.50;99.90;;;;;;5052082;28;20399;-72
2023/09/03 06:48:41;;;;;;;1999.90;999.90;;;17.60;99.90;;;;;;5053749;28;20116;-72
2023/09/03 06:51:06;;;;;;;1999.90;999.90;;;17.60;99.90;;;;;;5052632;28;20036;-73
2023/09/03 06:53:32;;;;;;;1999.90;999.90;;;17.90;99.90;;;;;;5054086;28;20034;-73
2023/09/03 06:55:58;;;;;;;1999.90;999.90;;;17.90;99.90;;;;;;5053821;28;20037;-72
2023/09/03 06:58:23;;;;;;;1999.90;999.90;;;18.00;99.90;;;;;;5052274;28;20517;-72
2023/09/03 07:00:49;;;;;;;1999.90;999.90;;;18.10;99.90;;;;;;5053856;28;20505;-71
2023/09/03 07:03:15;;;;;;;1999.90;999.90;;;18.30;99.90;;;;;;5052411;28;20455;-71
2023/09/03 07:05:41;;;;;;;1999.90;999.90;;;18.40;99.90;;;;;;5053568;28;20040;-72
2023/09/03 07:08:07;;;;;;;1999.90;999.90;;;18.50;99.90;;;;;;5052253;28;20044;-72
2023/09/03 07:10:33;;;;;;;1999.90;999.90;;;18.60;99.90;;;;;;5052476;28;20033;-72
2023/09/03 07:12:59;;;;;;;1999.90;999.90;;;18.70;99.90;;;;;;5054101;28;20045;-73
2023/09/03 07:15:24;;;;;;;1999.90;999.90;;;18.80;99.90;;;;;;5053349;28;20037;-72
2023/09/03 07:17:50;;;;;;;1999.90;999.90;;;19.00;99.90;;;;;;5053361;28;20041;-72
2023/09/03 07:20:16;;;;;;;1999.90;999.90;;;19.00;99.90;;;;;;5053779;28;20033;-72
2023/09/03 07:22:41;;;;;;;1999.90;999.90;;;19.00;99.90;;;;;;5052207;28;20060;-72
2023/09/03 07:25:17;;;;;;;1999.90;999.90;;;18.90;99.90;;;;;;5054872;28;20479;-71
2023/09/03 07:27:43;;;;;;;1999.90;999.90;;;19.00;99.90;;;;;;5055373;28;20033;-72
2023/09/03 07:30:08;;;;;;;1999.90;999.90;;;19.20;99.90;;;;;;5056328;28;20048;-72
2023/09/03 07:32:36;;;;;;;1999.90;999.90;;;19.20;99.90;;;;;;5055746;28;20510;-73
2023/09/03 07:35:04;;;;;;;1999.90;999.90;;;19.30;99.90;;;;;;5054956;28;20097;-72
2023/09/03 07:37:29;;;;;;;1999.90;999.90;;;19.40;99.90;;;;;;5056613;28;20044;-74
2023/09/03 07:39:55;;;;;;;1999.90;999.90;;;19.50;99.90;;;;;;5056602;28;20814;-73
2023/09/03 07:42:20;;;;;;;1999.90;999.90;;;19.50;99.90;;;;;;5056930;28;20037;-73
2023/09/03 07:44:46;;;;;;;1999.90;999.90;;;19.70;99.90;;;;;;5056578;28;20033;-72
2023/09/03 07:47:12;;;;;;;1999.90;999.90;;;19.80;99.90;;;;;;5054397;28;20049;-73
2023/09/03 07:49:37;;;;;;;1999.90;999.90;;;19.90;99.90;;;;;;5056676;28;20569;-79
2023/09/03 07:52:03;;;;;;;1999.90;999.90;;;19.80;99.90;;;;;;5056175;28;20491;-74
2023/09/03 07:54:29;;;;;;;1999.90;999.90;;;19.90;99.90;;;;;;5056598;28;20034;-71
2023/09/03 07:56:54;;;;;;;1999.90;999.90;;;19.90;99.90;;;;;;5056669;28;20038;-73
2023/09/03 07:59:20;;;;;;;1999.90;999.90;;;20.00;99.90;;;;;;5054868;28;20402;-74
2023/09/03 08:01:46;;;;;;;1999.90;999.90;;;20.10;99.90;;;;;;5057450;28;20029;-75
2023/09/03 08:04:12;;;;;;;1999.90;999.90;;;20.20;99.90;;;;;;5057575;28;20479;-73
2023/09/03 08:06:37;;;;;;;1999.90;999.90;;;20.40;99.90;;;;;;5057292;28;20033;-72
2023/09/03 08:09:06;;;;;;;1999.90;999.90;;;20.50;99.90;;;;;;5057364;28;20571;-72
2023/09/03 08:11:32;;;;;;;1999.90;999.90;;;20.60;99.90;;;;;;5057819;28;20068;-74
2023/09/03 08:13:59;;;;;;;1999.90;999.90;;;20.70;99.90;;;;;;5056873;28;20124;-72
2023/09/03 08:16:25;;;;;;;1999.90;999.90;;;21.00;99.90;;;;;;5058954;28;20523;-72
2023/09/03 08:18:51;;;;;;;1999.90;999.90;;;21.20;99.90;;;;;;5057139;28;20053;-72
2023/09/03 08:21:17;;;;;;;1999.90;999.90;;;21.50;99.90;;;;;;5054153;28;20037;-72
2023/09/03 08:23:42;;;;;;;1999.90;999.90;;;21.80;99.90;;;;;;5055753;28;20029;-72
2023/09/03 08:26:08;;;;;;;1999.90;999.90;;;21.90;99.90;;;;;;5057155;28;20041;-73
2023/09/03 08:28:34;;;;;;;1999.90;999.90;;;21.90;99.90;;;;;;5056821;28;20037;-72
2023/09/03 08:30:59;;;;;;;1999.90;999.90;;;22.10;99.90;;;;;;5056996;28;20080;-73
2023/09/03 08:33:25;;;;;;;1999.90;999.90;;;21.90;99.90;;;;;;5057847;28;20419;-73
2023/09/03 08:35:50;;;;;;;1999.90;999.90;;;22.00;99.90;;;;;;5057093;28;20041;-73
2023/09/03 08:38:16;;;;;;;1999.90;999.90;;;22.40;99.90;;;;;;5057057;28;20038;-73
2023/09/03 08:40:43;;;;;;;1999.90;999.90;;;22.60;99.90;;;;;;5056981;28;20040;-74
2023/09/03 08:43:10;;;;;;;1999.90;999.90;;;22.50;99.90;;;;;;5058916;28;20029;-74
2023/09/03 08:45:44;;;;;;;1999.90;999.90;;;22.60;99.90;;;;;;5059008;28;20088;-78
2023/09/03 08:48:10;;;;;;;1999.90;999.90;;;22.80;99.90;;;;;;5057738;28;20045;-75
2023/09/03 08:50:36;;;;;;;1999.90;999.90;;;22.90;99.90;;;;;;5057608;28;20060;-74
2023/09/03 08:53:02;;;;;;;1999.90;999.90;;;22.90;99.90;;;;;;5058908;28;20072;-76
2023/09/03 08:55:29;;;;;;;1999.90;999.90;;;23.10;99.90;;;;;;5060277;28;20092;-75
2023/09/03 08:57:56;;;;;;;1999.90;999.90;;;23.00;99.90;;;;;;5059819;28;20053;-76
2023/09/03 09:00:22;;;;;;;1999.90;999.90;;;23.10;99.90;;;;;;5060856;28;20026;-76
2023/09/03 09:02:49;;;;;;;1999.90;999.90;;;23.50;99.90;;;;;;5060048;28;20040;-75
2023/09/03 09:05:15;;;;;;;1999.90;999.90;;;23.90;99.90;;;;;;5059909;28;20057;-76
2023/09/03 09:07:41;;;;;;;1999.90;999.90;;;23.80;99.90;;;;;;5060837;28;20847;-75
2023/09/03 09:10:10;;;;;;;1999.90;999.90;;;23.60;99.90;;;;;;5062453;28;20029;-76
2023/09/03 09:13:10;;;;;;;1999.90;999.90;;;23.70;99.90;;;;;;5060586;28;20030;-75
2023/09/03 09:15:36;;;;;;;1999.90;999.90;;;24.00;99.90;;;;;;5059115;28;20033;-74
2023/09/03 09:18:08;;;;;;;1999.90;999.90;;;24.00;99.90;;;;;;5060781;28;20037;-76
2023/09/03 09:20:38;;;;;;;1999.90;999.90;;;23.90;99.90;;;;;;5059546;28;20045;-73
2023/09/03 09:23:04;;;;;;;1999.90;999.90;;;23.60;99.90;;;;;;5058864;28;20033;-76
2023/09/03 09:25:34;;;;;;;1999.90;999.90;;;23.30;99.90;;;;;;5058152;28;20487;-79
2023/09/03 09:28:13;;;;;;;1999.90;999.90;;;23.20;99.90;;;;;;5057295;28;20052;-78
2023/09/03 09:30:56;;;;;;;1999.90;999.90;;;23.50;99.90;;;;;;5058489;28;20041;-77
2023/09/03 09:33:22;;;;;;;1999.90;999.90;;;23.60;99.90;;;;;;5058915;28;20033;-76
2023/09/03 09:35:48;;;;;;;1999.90;999.90;;;23.60;99.90;;;;;;5057056;28;20820;-75
2023/09/03 09:38:14;;;;;;;1999.90;999.90;;;23.90;99.90;;;;;;5057379;28;20111;-76
2023/09/03 09:40:40;;;;;;;1999.90;999.90;;;24.40;99.90;;;;;;5050476;28;20029;-73
2023/09/03 09:43:09;;;;;;;1999.90;999.90;;;24.70;99.90;;;;;;5053910;28;20033;-73
2023/09/03 09:45:46;;;;;;;1999.90;999.90;;;24.60;99.90;;;;;;5056233;28;20582;-74
2023/09/03 09:48:12;;;;;;;1999.90;999.90;;;24.70;99.90;;;;;;5056419;28;20045;-73
2023/09/03 09:50:39;;;;;;;1999.90;999.90;;;24.90;99.90;;;;;;5056170;28;20034;-72
2023/09/03 09:53:18;;;;;;;1999.90;999.90;;;24.80;99.90;;;;;;5055066;28;20033;-72
2023/09/03 09:55:44;;;;;;;1999.90;999.90;;;25.10;99.90;;;;;;5055615;28;20061;-71
2023/09/03 09:58:12;;;;;;;1999.90;999.90;;;25.10;99.90;;;;;;5056053;28;20041;-74
2023/09/03 10:00:42;;;;;;;1999.90;999.90;;;25.30;99.90;;;;;;5054334;28;20030;-72
2023/09/03 10:03:10;;;;;;;1999.90;999.90;;;25.40;99.90;;;;;;5054282;28;20033;-72
2023/09/03 10:05:37;;;;;;;1999.90;999.90;;;25.50;99.90;;;;;;5053808;28;20029;-74
2023/09/03 10:08:04;;;;;;;1999.90;999.90;;;25.50;99.90;;;;;;5054077;28;20029;-73
2023/09/03 10:10:33;;;;;;;1999.90;999.90;;;25.60;99.90;;;;;;5054311;28;20030;-72
2023/09/03 10:13:00;;;;;;;1999.90;999.90;;;25.60;99.90;;;;;;5054292;28;20029;-74
2023/09/03 10:15:28;;;;;;;1999.90;999.90;;;25.70;99.90;;;;;;5053309;28;20048;-72
2023/09/03 10:17:55;;;;;;;1999.90;999.90;;;25.80;99.90;;;;;;5053061;28;20037;-73
2023/09/03 10:20:22;;;;;;;1999.90;999.90;;;25.60;99.90;;;;;;5054369;28;20112;-73
2023/09/03 10:22:51;;;;;;;1999.90;999.90;;;25.80;99.90;;;;;;5054533;28;20479;-73
2023/09/03 10:25:21;;;;;;;1999.90;999.90;;;26.20;99.90;;;;;;5052640;28;20041;-73
2023/09/03 10:27:52;;;;;;;1999.90;999.90;;;26.30;99.90;;;;;;5054204;28;20041;-73
2023/09/03 10:30:23;;;;;;;1999.90;999.90;;;26.30;99.90;;;;;;5054286;28;20068;-73
2023/09/03 10:32:50;;;;;;;1999.90;999.90;;;26.30;99.90;;;;;;5054694;28;20037;-73
2023/09/03 10:35:15;;;;;;;1999.90;999.90;;;25.70;99.90;;;;;;5053991;28;20038;-73
2023/09/03 10:37:41;;;;;;;1999.90;999.90;;;25.60;99.90;;;;;;5052319;28;20091;-73
2023/09/03 10:40:36;;;;;;;1999.90;999.90;;;25.90;99.90;;;;;;5053225;28;20030;-73
2023/09/03 10:43:22;;;;;;;1999.90;999.90;;;26.00;99.90;;;;;;5048427;28;20128;-73
2023/09/03 10:46:14;;;;;;;1999.90;999.90;;;26.20;99.90;;;;;;5054046;28;20072;-73
2023/09/03 10:48:39;;;;;;;1999.90;999.90;;;26.50;99.90;;;;;;5050066;28;20045;-73
2023/09/03 10:51:05;;;;;;;1999.90;999.90;;;26.70;99.90;;;;;;5052548;28;20503;-72
2023/09/03 10:53:38;;;;;;;1999.90;999.90;;;27.00;99.90;;;;;;5054210;28;20033;-73
2023/09/03 10:56:16;;;;;;;1999.90;999.90;;;27.10;99.90;;;;;;5052407;28;20039;-77
2023/09/03 10:58:58;;;;;;;1999.90;999.90;;;27.10;99.90;;;;;;5055685;28;20466;-81
2023/09/03 11:01:32;;;;;;;1999.90;999.90;;;27.00;99.90;;;;;;5059079;28;20962;-80
2023/09/03 11:04:02;;;;;;;1999.90;999.90;;;26.90;99.90;;;;;;5057598;28;20044;-77
2023/09/03 11:06:33;;;;;;;1999.90;999.90;;;26.90;99.90;;;;;;5056754;28;20116;-78
2023/09/03 11:09:02;;;;;;;1999.90;999.90;;;27.30;99.90;;;;;;5056734;28;20040;-80
2023/09/03 11:11:33;;;;;;;1999.90;999.90;;;27.00;99.90;;;;;;5064462;28;20029;-78
2023/09/03 11:13:59;;;;;;;1999.90;999.90;;;27.20;99.90;;;;;;5059087;28;20035;-77
2023/09/03 11:16:32;;;;;;;1999.90;999.90;;;26.90;99.90;;;;;;5057384;28;20137;-78
2023/09/03 11:18:58;;;;;;;1999.90;999.90;;;27.00;99.90;;;;;;5060049;28;20889;-78
2023/09/03 11:21:26;;;;;;;1999.90;999.90;;;27.10;99.90;;;;;;5040018;28;20034;-80
2023/09/03 11:24:02;;;;;;;1999.90;999.90;;;27.30;99.90;;;;;;5037201;28;20038;-78
2023/09/03 11:26:29;;;;;;;1999.90;999.90;;;27.10;99.90;;;;;;5044358;28;20029;-77
2023/09/03 11:28:55;;;;;;;1999.90;999.90;;;27.10;99.90;;;;;;5048100;28;20033;-77
2023/09/03 11:31:21;;;;;;;1999.90;999.90;;;26.60;99.90;;;;;;5046742;28;20487;-77
2023/09/03 11:33:47;;;;;;;1999.90;999.90;;;26.40;99.90;;;;;;5054627;28;20044;-77
2023/09/03 11:36:12;;;;;;;1999.90;999.90;;;26.50;99.90;;;;;;5055881;28;20038;-77
2023/09/03 11:38:38;;;;;;;1999.90;999.90;;;26.50;99.90;;;;;;5055392;28;20036;-80
2023/09/03 11:41:04;;;;;;;1999.90;999.90;;;26.10;99.90;;;;;;5056200;28;20060;-78
2023/09/03 11:43:34;;;;;;;1999.90;999.90;;;25.90;99.90;;;;;;5056507;28;20181;-77
2023/09/03 11:46:01;;;;;;;1999.90;999.90;;;26.00;99.90;;;;;;5055147;28;20533;-78
2023/09/03 11:48:30;;;;;;;1999.90;999.90;;;26.40;99.90;;;;;;5055059;28;20452;-78
2023/09/03 11:50:56;;;;;;;1999.90;999.90;;;27.00;99.90;;;;;;5055297;28;20045;-78
2023/09/03 11:53:25;;;;;;;1999.90;999.90;;;27.40;99.90;;;;;;5055298;28;20041;-78
2023/09/03 11:55:54;;;;;;;1999.90;999.90;;;27.70;99.90;;;;;;5053975;28;20049;-77
2023/09/03 11:58:27;;;;;;;1999.90;999.90;;;28.10;99.90;;;;;;5056361;28;20060;-78
2023/09/03 12:00:54;;;;;;;1999.90;999.90;;;27.80;99.90;;;;;;5057971;28;20037;-78